Time;durP1;ratioP1;P1;durP2;ratioP2;P2;SDS_P1;SDS_P2;PMS_P1;PMS_P2;Temp;Humidity;BMP_temperature;BMP_pressure;BME280_temperature;BME280_humidity;BME280_pressure;Samples;Min_cycle;Max_cycle;Signal;HPM_P1;HPM_P2
2023/04/24 00:00:05;;;;;;;1.15;1.02;;;10.10;99.90;;;;;;5053743;28;20397;-35
2023/04/24 00:02:32;;;;;;;2.05;1.00;;;10.10;99.90;;;;;;5055957;28;20040;-36
2023/04/24 00:05:02;;;;;;;0.90;0.80;;;10.10;99.90;;;;;;5055358;28;20032;-38
2023/04/24 00:07:28;;;;;;;0.90;0.43;;;10.10;99.90;;;;;;5065094;28;20036;-39
2023/04/24 00:09:54;;;;;;;0.68;0.47;;;10.00;99.90;;;;;;5075503;28;20488;-36
2023/04/24 00:12:20;;;;;;;0.47;0.45;;;10.00;99.90;;;;;;5067208;28;20032;-41
2023/04/24 00:14:46;;;;;;;0.45;0.40;;;10.00;99.90;;;;;;5075463;28;20441;-39
2023/04/24 00:17:11;;;;;;;0.57;0.57;;;10.00;99.90;;;;;;5059107;28;20436;-39
2023/04/24 00:19:37;;;;;;;0.50;0.50;;;10.00;99.90;;;;;;5055382;28;20485;-40
2023/04/24 00:22:03;;;;;;;1.70;1.13;;;10.00;99.90;;;;;;5054913;28;20032;-40
2023/04/24 00:24:29;;;;;;;0.82;0.70;;;10.00;99.90;;;;;;5071351;28;20032;-35
2023/04/24 00:26:54;;;;;;;1.73;0.73;;;10.00;99.90;;;;;;5062568;28;20029;-39
2023/04/24 00:29:20;;;;;;;1.00;0.65;;;10.00;99.90;;;;;;5075100;28;20477;-37
2023/04/24 00:31:46;;;;;;;0.60;0.60;;;10.00;99.90;;;;;;5073681;28;20067;-37
2023/04/24 00:34:12;;;;;;;2.40;0.85;;;10.00;99.90;;;;;;5057901;28;20037;-39
2023/04/24 00:36:38;;;;;;;1.15;0.75;;;10.00;99.90;;;;;;5074015;28;20473;-37
2023/04/24 00:39:03;;;;;;;0.45;0.45;;;10.00;99.90;;;;;;5070492;28;20085;-40
2023/04/24 00:41:29;;;;;;;0.90;0.90;;;10.00;99.90;;;;;;5069837;28;20516;-38
2023/04/24 00:43:55;;;;;;;4.50;1.35;;;10.00;99.90;;;;;;5055098;28;20021;-40
2023/04/24 00:46:21;;;;;;;1.13;0.93;;;10.00;99.90;;;;;;5056170;28;20059;-40
2023/04/24 00:48:47;;;;;;;1.50;1.40;;;10.00;99.90;;;;;;5073933;28;20040;-36
2023/04/24 00:51:13;;;;;;;1.50;1.40;;;10.10;99.90;;;;;;5073523;28;20107;-35
2023/04/24 00:53:38;;;;;;;3.60;1.20;;;10.00;99.90;;;;;;5072118;28;20060;-35
2023/04/24 00:56:05;;;;;;;2.03;1.77;;;10.00;99.90;;;;;;5074715;28;20021;-40
2023/04/24 00:58:31;;;;;;;2.25;2.00;;;10.10;99.90;;;;;;5072111;28;20619;-38
2023/04/24 01:00:58;;;;;;;2.30;1.98;;;10.10;99.90;;;;;;5074775;28;20055;-34
2023/04/24 01:03:28;;;;;;;2.58;2.13;;;10.10;99.90;;;;;;5073438;28;20044;-37
2023/04/24 01:05:55;;;;;;;3.38;2.55;;;10.10;99.90;;;;;;5057160;28;20054;-39
2023/04/24 01:08:23;;;;;;;3.40;2.55;;;10.20;99.90;;;;;;5053147;28;20036;-34
2023/04/24 01:10:51;;;;;;;3.33;2.28;;;10.20;99.90;;;;;;5066949;28;20540;-34
2023/04/24 01:13:20;;;;;;;;;;;10.20;99.90;;;;;;5070621;28;20086;-38
2023/04/24 01:15:46;;;;;;;3.08;2.65;;;10.10;99.90;;;;;;5074234;28;20361;-37
2023/04/24 01:18:13;;;;;;;3.70;2.85;;;10.20;99.90;;;;;;5074454;28;20495;-37
2023/04/24 01:20:40;;;;;;;3.95;2.90;;;10.20;99.90;;;;;;5074118;28;20028;-35
2023/04/24 01:23:07;;;;;;;7.70;2.88;;;10.20;99.90;;;;;;5059885;28;20493;-34
2023/04/24 01:25:33;;;;;;;4.40;3.03;;;10.20;99.90;;;;;;5054058;28;20033;-40
2023/04/24 01:27:59;;;;;;;5.70;3.00;;;10.20;99.90;;;;;;5063115;28;20081;-40
2023/04/24 01:30:26;;;;;;;4.57;3.38;;;10.20;99.90;;;;;;5073885;28;20473;-35
2023/04/24 01:32:52;;;;;;;4.70;3.15;;;10.20;99.90;;;;;;5072192;28;20485;-39
2023/04/24 01:35:18;;;;;;;3.25;2.90;;;10.20;99.90;;;;;;5073761;28;20033;-39
2023/04/24 01:37:44;;;;;;;4.05;2.85;;;10.20;99.90;;;;;;5073668;28;20049;-35
2023/04/24 01:40:10;;;;;;;8.25;3.58;;;10.30;99.90;;;;;;5073999;28;20029;-41
2023/04/24 01:42:36;;;;;;;3.75;3.22;;;10.30;99.90;;;;;;5065406;28;20497;-37
2023/04/24 01:45:03;;;;;;;7.20;3.65;;;10.30;99.90;;;;;;5053651;28;20029;-36
2023/04/24 01:47:30;;;;;;;6.97;3.53;;;10.30;99.90;;;;;;5061664;28;20443;-38
2023/04/24 01:49:56;;;;;;;4.07;3.28;;;10.30;99.90;;;;;;5056941;28;20301;-38
2023/04/24 01:52:21;;;;;;;4.38;3.00;;;10.30;99.90;;;;;;5053251;28;20393;-36
2023/04/24 01:54:47;;;;;;;3.60;2.60;;;10.30;99.90;;;;;;5053713;28;20734;-39
2023/04/24 01:57:14;;;;;;;5.30;3.35;;;10.40;99.90;;;;;;5058085;28;20523;-38
2023/04/24 01:59:40;;;;;;;3.92;2.92;;;10.40;99.90;;;;;;5073067;28;20051;-39
2023/04/24 02:02:06;;;;;;;4.47;2.60;;;10.40;99.90;;;;;;5065543;28;20025;-36
2023/04/24 02:04:31;;;;;;;2.30;2.10;;;10.40;99.90;;;;;;5052496;28;20028;-39
2023/04/24 02:06:57;;;;;;;3.42;2.75;;;10.40;99.90;;;;;;5065530;28;20099;-35
2023/04/24 02:09:23;;;;;;;3.05;2.78;;;10.40;99.90;;;;;;5071795;28;20393;-36
2023/04/24 02:11:48;;;;;;;3.50;2.50;;;10.40;99.90;;;;;;5071331;28;20025;-38
2023/04/24 02:14:14;;;;;;;4.13;3.05;;;10.40;99.90;;;;;;5053243;28;20410;-39
2023/04/24 02:16:40;;;;;;;4.88;3.40;;;10.40;99.90;;;;;;5053451;28;20020;-36
2023/04/24 02:19:06;;;;;;;3.65;3.13;;;10.40;99.90;;;;;;5052779;28;20025;-40
2023/04/24 02:21:31;;;;;;;7.07;3.70;;;10.40;99.90;;;;;;5065250;28;20032;-41
2023/04/24 02:23:57;;;;;;;5.93;3.17;;;10.40;99.90;;;;;;5062457;28;20120;-40
2023/04/24 02:26:23;;;;;;;2.85;2.50;;;10.40;99.90;;;;;;5072652;28;20027;-43
2023/04/24 02:28:49;;;;;;;4.47;3.50;;;10.40;99.90;;;;;;5070965;28;20070;-40
2023/04/24 02:31:15;;;;;;;4.25;3.50;;;10.40;99.90;;;;;;5072982;28;20064;-41
2023/04/24 02:33:41;;;;;;;3.17;2.88;;;10.40;99.90;;;;;;5070269;28;20483;-42
2023/04/24 02:36:07;;;;;;;3.78;3.08;;;10.30;99.90;;;;;;5070095;28;20024;-39
2023/04/24 02:38:33;;;;;;;5.47;3.38;;;10.30;99.90;;;;;;5070985;28;20048;-41
2023/04/24 02:40:58;;;;;;;4.22;3.40;;;10.30;99.90;;;;;;5072880;28;20078;-40
2023/04/24 02:43:24;;;;;;;8.73;3.63;;;10.30;99.90;;;;;;5070556;28;20393;-44
2023/04/24 02:45:50;;;;;;;3.92;3.00;;;10.30;99.90;;;;;;5072912;28;20050;-41
2023/04/24 02:48:16;;;;;;;3.70;2.97;;;10.30;99.90;;;;;;5072623;28;20017;-41
2023/04/24 02:50:42;;;;;;;3.42;2.47;;;10.30;99.90;;;;;;5054072;28;20330;-41
2023/04/24 02:53:08;;;;;;;4.07;3.00;;;10.30;99.90;;;;;;5070840;28;20020;-41
2023/04/24 02:55:33;;;;;;;3.28;2.97;;;10.30;99.90;;;;;;5072736;28;20065;-41
2023/04/24 02:57:59;;;;;;;3.90;2.60;;;10.30;99.90;;;;;;5069972;28;20017;-43
2023/04/24 03:00:25;;;;;;;4.32;3.03;;;10.30;99.90;;;;;;5071555;28;20443;-40
2023/04/24 03:02:51;;;;;;;3.50;3.20;;;10.30;99.90;;;;;;5072722;28;20111;-41
2023/04/24 03:05:16;;;;;;;6.28;3.38;;;10.30;99.90;;;;;;5060503;28;20504;-43
2023/04/24 03:07:42;;;;;;;7.50;3.40;;;10.30;99.90;;;;;;5052546;28;20064;-42
2023/04/24 03:10:08;;;;;;;3.58;2.55;;;10.30;99.90;;;;;;5052445;28;20051;-41
2023/04/24 03:12:34;;;;;;;4.85;3.63;;;10.20;99.90;;;;;;5052769;28;20500;-41
2023/04/24 03:14:59;;;;;;;4.47;3.03;;;10.20;99.90;;;;;;5069228;28;20063;-41
2023/04/24 03:17:25;;;;;;;2.55;2.33;;;10.10;99.90;;;;;;5072522;28;20031;-40
2023/04/24 03:19:51;;;;;;;6.65;2.42;;;10.10;99.90;;;;;;5072503;28;20436;-41
2023/04/24 03:22:16;;;;;;;4.10;2.08;;;10.10;99.90;;;;;;5071160;28;20048;-43
2023/04/24 03:24:42;;;;;;;7.78;2.97;;;10.10;99.90;;;;;;5071097;28;20040;-41
2023/04/24 03:27:08;;;;;;;3.38;2.75;;;10.10;99.90;;;;;;5071076;28;20025;-41
2023/04/24 03:29:33;;;;;;;6.90;3.38;;;10.10;99.90;;;;;;5071612;28;20419;-40
2023/04/24 03:31:59;;;;;;;8.75;2.63;;;10.00;99.90;;;;;;5071106;28;20013;-40
2023/04/24 03:34:25;;;;;;;4.00;2.97;;;10.00;99.90;;;;;;5070963;28;20032;-41
2023/04/24 03:36:50;;;;;;;2.70;2.50;;;10.00;99.90;;;;;;5075917;28;20408;-41
2023/04/24 03:39:16;;;;;;;3.92;2.60;;;10.00;99.90;;;;;;5076429;28;20492;-43
2023/04/24 03:41:41;;;;;;;3.83;2.67;;;10.00;99.90;;;;;;5074938;28;20078;-40
2023/04/24 03:44:07;;;;;;;3.08;2.65;;;10.00;99.90;;;;;;5074852;28;20031;-43
2023/04/24 03:46:33;;;;;;;4.97;2.63;;;10.00;99.90;;;;;;5076018;28;20028;-41
2023/04/24 03:48:58;;;;;;;4.10;2.40;;;10.00;99.90;;;;;;5073285;28;20027;-47
2023/04/24 03:51:25;;;;;;;6.68;2.95;;;10.00;99.90;;;;;;5074576;28;20447;-44
2023/04/24 03:53:50;;;;;;;4.60;2.70;;;10.00;99.90;;;;;;5076155;28;20487;-43
2023/04/24 03:56:16;;;;;;;4.13;2.70;;;10.00;99.90;;;;;;5075459;28;20021;-36
2023/04/24 03:58:42;;;;;;;5.10;2.53;;;9.90;99.90;;;;;;5067133;28;20017;-41
2023/04/24 04:01:08;;;;;;;4.32;2.70;;;9.90;99.90;;;;;;5074446;28;20017;-38
2023/04/24 04:03:33;;;;;;;8.23;2.67;;;10.00;99.90;;;;;;5075278;28;20377;-40
2023/04/24 04:05:59;;;;;;;4.18;2.72;;;9.90;99.90;;;;;;5075633;28;20028;-40
2023/04/24 04:08:25;;;;;;;5.75;3.30;;;9.90;99.90;;;;;;5073584;28;20056;-42
2023/04/24 04:10:51;;;;;;;10.82;2.65;;;9.90;99.90;;;;;;5075735;28;20032;-42
2023/04/24 04:13:16;;;;;;;7.05;3.78;;;9.90;99.90;;;;;;5074321;28;20039;-43
2023/04/24 04:15:42;;;;;;;3.67;3.13;;;9.90;99.90;;;;;;5074303;28;20028;-42
2023/04/24 04:18:08;;;;;;;7.80;3.55;;;10.00;99.90;;;;;;5062115;28;20388;-37
2023/04/24 04:20:34;;;;;;;4.90;3.53;;;9.90;99.90;;;;;;5055364;28;20033;-47
2023/04/24 04:23:00;;;;;;;6.55;3.58;;;9.80;99.90;;;;;;5067844;28;20554;-38
2023/04/24 04:25:25;;;;;;;4.88;3.35;;;9.90;99.90;;;;;;5074574;28;20358;-44
2023/04/24 04:27:52;;;;;;;7.57;4.18;;;9.90;99.90;;;;;;5073895;28;20028;-40
2023/04/24 04:30:18;;;;;;;7.55;4.10;;;9.90;99.90;;;;;;5072653;28;20020;-42
2023/04/24 04:32:43;;;;;;;10.15;3.85;;;9.90;99.90;;;;;;5075143;28;20086;-46
2023/04/24 04:35:09;;;;;;;5.10;3.65;;;9.80;99.90;;;;;;5075295;28;20066;-46
2023/04/24 04:37:35;;;;;;;6.90;3.80;;;9.80;99.90;;;;;;5074034;28;20443;-45
2023/04/24 04:40:06;;;;;;;6.72;3.97;;;9.80;99.90;;;;;;5060057;28;20041;-43
2023/04/24 04:42:33;;;;;;;5.60;3.85;;;9.80;99.90;;;;;;5060710;28;20032;-44
2023/04/24 04:44:59;;;;;;;7.22;3.85;;;9.80;99.90;;;;;;5069490;28;20025;-43
2023/04/24 04:47:26;;;;;;;7.93;3.88;;;9.80;99.90;;;;;;5074818;28;20036;-46
2023/04/24 04:49:52;;;;;;;6.68;3.60;;;9.80;99.90;;;;;;5073393;28;20393;-45
2023/04/24 04:52:18;;;;;;;4.97;3.10;;;9.80;99.90;;;;;;5074723;28;20025;-44
2023/04/24 04:54:44;;;;;;;4.05;3.00;;;9.70;99.90;;;;;;5073614;28;20025;-45
2023/04/24 04:57:10;;;;;;;4.10;2.88;;;9.70;99.90;;;;;;5074922;28;20083;-41
2023/04/24 04:59:37;;;;;;;3.83;2.45;;;9.70;99.90;;;;;;5072740;28;20472;-43
2023/04/24 05:02:02;;;;;;;2.03;1.40;;;9.60;99.90;;;;;;5061765;28;20477;-41
2023/04/24 05:04:28;;;;;;;1.92;1.20;;;9.60;99.90;;;;;;5074707;28;20029;-42
2023/04/24 05:06:53;;;;;;;0.80;0.80;;;9.50;99.90;;;;;;5073534;28;20036;-44
2023/04/24 05:09:19;;;;;;;1.52;0.55;;;9.40;99.90;;;;;;5063842;28;20037;-42
2023/04/24 05:11:45;;;;;;;0.77;0.57;;;9.30;99.90;;;;;;5054212;28;20020;-36
2023/04/24 05:14:12;;;;;;;1.13;0.40;;;9.30;99.90;;;;;;5065924;28;20032;-42
2023/04/24 05:16:38;;;;;;;5.40;0.90;;;9.20;99.90;;;;;;5074128;28;20056;-43
2023/04/24 05:19:04;;;;;;;1.88;0.50;;;9.20;99.90;;;;;;5074492;28;20488;-43
2023/04/24 05:21:30;;;;;;;0.47;0.38;;;9.20;99.90;;;;;;5074144;28;20465;-43
2023/04/24 05:23:56;;;;;;;1.27;0.40;;;9.20;99.90;;;;;;5068011;28;20025;-45
2023/04/24 05:26:22;;;;;;;0.30;0.30;;;9.20;99.90;;;;;;5074302;28;20024;-39
2023/04/24 05:28:48;;;;;;;2.78;0.32;;;9.20;99.90;;;;;;5071617;28;20020;-40
2023/04/24 05:31:14;;;;;;;0.32;0.30;;;9.10;99.90;;;;;;5073826;28;20035;-41
2023/04/24 05:33:39;;;;;;;0.70;0.43;;;9.10;99.90;;;;;;5073918;28;20099;-42
2023/04/24 05:36:06;;;;;;;0.95;0.47;;;9.10;99.90;;;;;;5067584;28;20107;-41
2023/04/24 05:38:32;;;;;;;0.65;0.63;;;9.10;99.90;;;;;;5072149;28;20048;-40
2023/04/24 05:40:57;;;;;;;1.38;0.60;;;9.20;99.90;;;;;;5070664;28;20028;-41
2023/04/24 05:43:23;;;;;;;0.85;0.70;;;9.20;99.90;;;;;;5070209;28;20029;-39
2023/04/24 05:45:48;;;;;;;0.65;0.50;;;9.20;99.90;;;;;;5073642;28;20029;-41
2023/04/24 05:48:14;;;;;;;3.15;1.17;;;9.30;99.90;;;;;;5073614;28;20032;-40
2023/04/24 05:50:40;;;;;;;10.05;1.27;;;9.30;99.90;;;;;;5060969;28;20024;-41
2023/04/24 05:53:06;;;;;;;0.80;0.80;;;9.30;99.90;;;;;;5053849;28;20029;-42
2023/04/24 05:55:32;;;;;;;1.70;1.02;;;9.30;99.90;;;;;;5053485;28;20036;-40
2023/04/24 05:57:58;;;;;;;1.90;0.98;;;9.30;99.90;;;;;;5061931;28;20024;-40
2023/04/24 06:00:25;;;;;;;5.72;1.25;;;9.30;99.90;;;;;;5073376;28;20052;-40
2023/04/24 06:02:52;;;;;;;5.15;1.90;;;9.40;99.90;;;;;;5072190;28;20107;-41
2023/04/24 06:05:18;;;;;;;1.10;1.00;;;9.40;99.90;;;;;;5073342;28;20472;-38
2023/04/24 06:07:44;;;;;;;1.60;1.45;;;9.30;99.90;;;;;;5068818;28;20025;-41
2023/04/24 06:10:10;;;;;;;3.65;2.30;;;9.40;99.90;;;;;;5059297;28;20047;-40
2023/04/24 06:12:36;;;;;;;6.28;4.15;;;9.30;99.90;;;;;;5059275;28;20481;-41
2023/04/24 06:15:02;;;;;;;9.27;4.88;;;9.20;99.90;;;;;;5064093;28;20028;-40
2023/04/24 06:17:28;;;;;;;14.35;5.88;;;9.10;99.90;;;;;;5070796;28;20119;-40
2023/04/24 06:19:53;;;;;;;19.70;5.97;;;8.90;99.90;;;;;;5059606;28;20108;-39
2023/04/24 06:22:19;;;;;;;7.45;5.45;;;8.80;99.90;;;;;;5053318;28;20503;-41
2023/04/24 06:24:45;;;;;;;15.27;6.25;;;8.80;99.90;;;;;;5052728;28;20158;-41
2023/04/24 06:27:10;;;;;;;13.25;7.00;;;8.80;99.90;;;;;;5068886;28;20241;-40
2023/04/24 06:29:36;;;;;;;17.10;7.75;;;8.70;99.90;;;;;;5072932;28;20119;-39
2023/04/24 06:32:02;;;;;;;23.00;7.50;;;8.70;99.90;;;;;;5070364;28;20033;-40
2023/04/24 06:34:28;;;;;;;27.85;9.25;;;8.70;99.90;;;;;;5072796;28;20017;-40
2023/04/24 06:36:54;;;;;;;27.58;9.48;;;8.70;99.90;;;;;;5073021;28;20082;-39
2023/04/24 06:39:20;;;;;;;26.67;8.38;;;8.70;99.90;;;;;;5084060;28;20020;-39
2023/04/24 06:41:46;;;;;;;33.20;9.63;;;8.70;99.90;;;;;;5079901;28;20059;-39
2023/04/24 06:44:11;;;;;;;20.73;10.32;;;8.70;99.90;;;;;;5072702;28;20465;-38
2023/04/24 06:46:37;;;;;;;18.27;9.20;;;8.60;99.90;;;;;;5072794;28;20029;-40
2023/04/24 06:49:03;;;;;;;27.55;9.70;;;8.60;99.90;;;;;;5071733;28;20388;-40
2023/04/24 06:51:28;;;;;;;24.73;9.38;;;8.50;99.90;;;;;;5069641;28;20439;-39
2023/04/24 06:53:55;;;;;;;18.67;8.48;;;8.50;99.90;;;;;;5072735;28;20385;-41
2023/04/24 06:56:22;;;;;;;31.67;9.57;;;8.50;99.90;;;;;;5062663;28;20178;-38
2023/04/24 06:58:48;;;;;;;20.75;9.10;;;8.50;99.90;;;;;;5072378;28;20029;-40
2023/04/24 07:01:14;;;;;;;24.33;8.23;;;8.60;99.90;;;;;;5072679;28;20024;-41
2023/04/24 07:03:39;;;;;;;17.17;7.95;;;8.60;99.90;;;;;;5062520;28;20500;-39
2023/04/24 07:06:05;;;;;;;14.77;8.18;;;8.60;99.90;;;;;;5052816;28;20029;-37
2023/04/24 07:08:32;;;;;;;22.63;8.65;;;8.50;99.90;;;;;;5092898;28;20031;-40
2023/04/24 07:10:59;;;;;;;27.08;7.78;;;8.50;99.90;;;;;;5086469;28;20024;-39
2023/04/24 07:13:25;;;;;;;30.23;7.82;;;8.50;99.90;;;;;;5076667;28;20052;-40
2023/04/24 07:15:52;;;;;;;21.08;7.65;;;8.50;99.90;;;;;;5074352;28;20437;-39
2023/04/24 07:18:18;;;;;;;17.70;6.60;;;8.50;99.90;;;;;;5073572;28;20141;-40
2023/04/24 07:20:44;;;;;;;16.70;7.90;;;8.50;99.90;;;;;;5072369;28;20885;-36
2023/04/24 07:23:10;;;;;;;24.10;7.28;;;8.50;99.90;;;;;;5074702;28;20469;-40
2023/04/24 07:25:35;;;;;;;16.00;5.82;;;8.50;99.90;;;;;;5074875;28;20083;-39
2023/04/24 07:28:01;;;;;;;16.13;6.13;;;8.60;99.90;;;;;;5074355;28;20036;-40
2023/04/24 07:30:28;;;;;;;27.52;6.80;;;8.50;99.90;;;;;;5066017;28;20520;-39
2023/04/24 07:32:55;;;;;;;27.73;6.40;;;8.60;99.90;;;;;;5073169;28;20528;-38
2023/04/24 07:35:20;;;;;;;29.40;5.40;;;8.60;99.90;;;;;;5072689;28;20501;-41
2023/04/24 07:37:46;;;;;;;18.25;4.93;;;8.60;99.90;;;;;;5075859;28;20041;-39
2023/04/24 07:40:13;;;;;;;16.30;6.00;;;8.60;99.90;;;;;;5059891;28;20385;-37
2023/04/24 07:42:39;;;;;;;35.20;5.40;;;8.50;99.90;;;;;;5060632;28;20036;-40
2023/04/24 07:45:05;;;;;;;21.65;5.32;;;8.60;99.90;;;;;;5059539;28;20029;-38
2023/04/24 07:47:32;;;;;;;24.48;6.28;;;8.60;99.90;;;;;;5072550;28;20037;-39
2023/04/24 07:49:58;;;;;;;16.70;4.82;;;8.60;99.90;;;;;;5060593;28;20052;-39
2023/04/24 07:52:24;;;;;;;31.00;5.18;;;8.60;99.90;;;;;;5059832;28;20025;-36
2023/04/24 07:54:50;;;;;;;18.88;5.03;;;8.60;99.90;;;;;;5062344;28;20419;-41
2023/04/24 07:57:16;;;;;;;23.60;4.20;;;8.60;99.90;;;;;;5068312;28;20107;-38
2023/04/24 07:59:42;;;;;;;15.65;3.83;;;8.50;99.90;;;;;;5066834;28;20505;-40
2023/04/24 08:02:07;;;;;;;19.40;4.43;;;8.50;99.90;;;;;;5055735;28;20064;-38
2023/04/24 08:04:33;;;;;;;32.35;3.30;;;8.50;99.90;;;;;;5058602;28;20036;-40
2023/04/24 08:06:59;;;;;;;23.35;4.05;;;8.50;99.90;;;;;;5069145;28;20032;-39
2023/04/24 08:09:25;;;;;;;21.73;4.22;;;8.50;99.90;;;;;;5058956;28;20071;-39
2023/04/24 08:11:50;;;;;;;12.48;4.03;;;8.50;99.90;;;;;;5069664;28;20035;-39
2023/04/24 08:14:16;;;;;;;12.05;3.33;;;8.50;99.90;;;;;;5079318;28;20055;-41
2023/04/24 08:16:42;;;;;;;21.75;2.80;;;8.50;99.90;;;;;;5075533;28;20410;-40
2023/04/24 08:19:08;;;;;;;13.13;2.55;;;8.60;99.90;;;;;;5074044;28;20052;-39
2023/04/24 08:21:33;;;;;;;8.45;2.47;;;8.60;99.90;;;;;;5062350;28;20024;-38
2023/04/24 08:23:59;;;;;;;8.20;2.22;;;8.60;99.90;;;;;;5075598;28;20025;-38
2023/04/24 08:26:25;;;;;;;16.92;2.78;;;8.70;99.90;;;;;;5061792;28;20035;-38
2023/04/24 08:28:50;;;;;;;15.25;1.70;;;8.60;99.90;;;;;;5060200;28;20460;-36
2023/04/24 08:31:16;;;;;;;15.10;1.92;;;8.60;99.90;;;;;;5061433;28;20033;-39
2023/04/24 08:33:44;;;;;;;11.30;2.22;;;8.60;99.90;;;;;;5066209;28;20073;-36
2023/04/24 08:36:10;;;;;;;13.82;3.03;;;8.60;99.90;;;;;;5067744;28;20025;-42
2023/04/24 08:38:36;;;;;;;17.67;2.47;;;8.70;99.90;;;;;;5063938;28;20408;-35
2023/04/24 08:41:02;;;;;;;20.48;2.30;;;8.70;99.90;;;;;;5065111;28;20035;-43
2023/04/24 08:43:28;;;;;;;16.15;2.50;;;8.80;99.90;;;;;;5060395;28;20029;-36
2023/04/24 08:45:56;;;;;;;15.65;2.33;;;8.90;99.90;;;;;;5077339;28;20020;-43
2023/04/24 08:48:23;;;;;;;11.20;2.28;;;8.90;99.90;;;;;;5069084;28;20534;-38
2023/04/24 08:50:50;;;;;;;17.30;2.10;;;8.80;99.90;;;;;;5057891;28;20094;-40
2023/04/24 08:53:17;;;;;;;10.63;1.83;;;8.90;99.90;;;;;;5070186;28;20036;-41
2023/04/24 08:55:46;;;;;;;20.63;2.15;;;9.00;99.90;;;;;;5074178;28;20039;-44
2023/04/24 08:58:13;;;;;;;9.98;2.13;;;9.00;99.90;;;;;;5067157;28;20021;-38
2023/04/24 09:00:43;;;;;;;10.77;2.83;;;8.90;99.90;;;;;;5089866;28;20232;-41
2023/04/24 09:03:10;;;;;;;11.02;2.60;;;8.90;99.90;;;;;;5074749;28;20086;-38
2023/04/24 09:05:36;;;;;;;10.63;2.95;;;8.90;99.90;;;;;;5072903;28;20028;-41
2023/04/24 09:08:04;;;;;;;7.25;2.40;;;8.80;99.90;;;;;;5074462;28;20024;-41
2023/04/24 09:10:30;;;;;;;11.02;2.03;;;8.80;99.90;;;;;;5074360;28;20032;-43
2023/04/24 09:12:58;;;;;;;12.55;2.05;;;8.80;99.90;;;;;;5074615;28;20070;-40
2023/04/24 09:15:25;;;;;;;9.80;2.22;;;8.80;99.90;;;;;;5074319;28;20388;-40
2023/04/24 09:17:51;;;;;;;7.22;2.08;;;9.00;99.90;;;;;;5074826;28;20423;-42
2023/04/24 09:20:16;;;;;;;8.65;2.25;;;9.00;99.90;;;;;;5074209;28;20028;-40
2023/04/24 09:22:43;;;;;;;5.80;2.10;;;9.20;99.90;;;;;;5074201;28;20068;-39
2023/04/24 09:25:12;;;;;;;7.47;1.80;;;9.40;99.90;;;;;;5074486;28;20039;-42
2023/04/24 09:27:42;;;;;;;16.88;2.80;;;9.60;99.90;;;;;;5074139;28;20033;-41
2023/04/24 09:30:08;;;;;;;7.10;2.35;;;9.60;99.90;;;;;;5074241;28;20499;-40
2023/04/24 09:32:34;;;;;;;5.97;2.17;;;9.50;99.90;;;;;;5072976;28;20028;-45
2023/04/24 09:35:08;;;;;;;5.40;1.42;;;9.60;99.90;;;;;;5074035;28;20031;-39
2023/04/24 09:37:41;;;;;;;4.25;1.80;;;9.70;99.90;;;;;;5073773;28;20045;-40
2023/04/24 09:40:17;;;;;;;10.75;1.48;;;9.70;99.90;;;;;;5074161;28;20490;-40
2023/04/24 09:42:45;;;;;;;8.98;1.55;;;9.80;99.90;;;;;;5074101;28;20468;-41
2023/04/24 09:45:11;;;;;;;5.43;1.35;;;10.00;99.90;;;;;;5073756;28;20039;-40
2023/04/24 09:47:40;;;;;;;2.50;1.42;;;10.10;99.90;;;;;;5073675;28;20024;-39
2023/04/24 09:50:14;;;;;;;4.65;1.17;;;10.00;99.90;;;;;;5073600;28;20025;-40
2023/04/24 09:52:41;;;;;;;7.47;1.20;;;9.90;99.90;;;;;;5073859;28;20464;-43
2023/04/24 09:55:18;;;;;;;6.70;0.93;;;9.70;99.90;;;;;;5073893;28;20376;-40
2023/04/24 09:57:58;;;;;;;5.13;1.45;;;9.70;99.90;;;;;;5073621;28;20032;-43
2023/04/24 10:00:28;;;;;;;5.82;1.02;;;9.70;99.90;;;;;;5073549;28;20033;-43
2023/04/24 10:03:05;;;;;;;4.45;1.15;;;9.80;99.90;;;;;;5073434;28;20111;-41
2023/04/24 10:05:36;;;;;;;7.53;1.60;;;9.80;99.90;;;;;;5073394;28;20043;-40
2023/04/24 10:08:10;;;;;;;6.47;0.93;;;9.60;99.90;;;;;;5073647;28;20056;-40
2023/04/24 10:10:40;;;;;;;4.18;1.05;;;9.40;99.90;;;;;;5071972;28;20033;-42
2023/04/24 10:13:08;;;;;;;5.43;0.95;;;9.30;99.90;;;;;;5073566;28;20524;-44
2023/04/24 10:15:35;;;;;;;2.10;1.27;;;9.20;99.90;;;;;;5071877;28;20029;-41
2023/04/24 10:18:01;;;;;;;2.92;0.52;;;9.20;99.90;;;;;;5073124;28;20119;-42
2023/04/24 10:20:30;;;;;;;7.38;0.57;;;9.30;99.90;;;;;;5071868;28;20400;-45
2023/04/24 10:22:57;;;;;;;1.77;0.50;;;9.50;99.90;;;;;;5073397;28;20074;-44
2023/04/24 10:25:26;;;;;;;3.40;0.63;;;9.60;99.90;;;;;;5073161;28;20064;-43
2023/04/24 10:27:57;;;;;;;2.80;0.55;;;9.70;99.90;;;;;;5073031;28;20037;-41
2023/04/24 10:30:23;;;;;;;3.78;0.70;;;9.80;99.90;;;;;;5073342;28;20032;-40
2023/04/24 10:32:48;;;;;;;4.28;0.98;;;9.80;99.90;;;;;;5073010;28;20028;-43
2023/04/24 10:35:15;;;;;;;1.90;1.23;;;9.90;99.90;;;;;;5073152;28;20477;-42
2023/04/24 10:37:45;;;;;;;1.90;0.70;;;10.00;99.90;;;;;;5072807;28;20110;-43
2023/04/24 10:40:15;;;;;;;4.05;1.60;;;10.10;99.90;;;;;;5073147;28;20097;-41
2023/04/24 10:42:42;;;;;;;2.22;0.70;;;10.30;99.90;;;;;;5073129;28;20528;-40
2023/04/24 10:45:17;;;;;;;1.77;0.43;;;10.40;99.90;;;;;;5072785;28;20389;-44
2023/04/24 10:47:56;;;;;;;3.42;0.60;;;10.40;99.90;;;;;;5072878;28;20071;-43
2023/04/24 10:50:22;;;;;;;1.90;0.63;;;10.70;99.90;;;;;;5072672;28;20393;-40
2023/04/24 10:52:51;;;;;;;3.92;0.73;;;11.30;99.90;;;;;;5072809;28;20032;-42
2023/04/24 10:55:37;;;;;;;1.55;1.40;;;11.60;99.90;;;;;;5072939;28;20481;-41
2023/04/24 10:58:03;;;;;;;2.13;0.85;;;11.60;99.90;;;;;;5072588;28;20028;-41
2023/04/24 11:00:29;;;;;;;2.83;0.60;;;11.30;99.90;;;;;;5071484;28;20028;-39
2023/04/24 11:02:55;;;;;;;3.10;0.70;;;10.70;99.90;;;;;;5072523;28;20389;-42
2023/04/24 11:05:22;;;;;;;3.92;0.85;;;10.10;99.90;;;;;;5072563;28;20035;-41
2023/04/24 11:08:27;;;;;;;7.85;1.40;;;9.80;99.90;;;;;;5072678;28;20103;-39
2023/04/24 11:11:08;;;;;;;2.20;0.63;;;9.50;99.90;;;;;;5030347;28;20045;-43
2023/04/24 11:13:55;;;;;;;6.05;1.42;;;9.30;99.90;;;;;;5030468;28;20072;-46
2023/04/24 11:16:32;;;;;;;3.25;1.33;;;9.10;99.90;;;;;;5060816;28;20267;-40
2023/04/24 11:19:16;;;;;;;10.07;2.05;;;9.10;99.90;;;;;;5072561;28;20468;-41
2023/04/24 11:21:46;;;;;;;6.43;0.90;;;9.00;99.90;;;;;;5072507;28;20090;-41
2023/04/24 11:24:44;;;;;;;6.10;0.75;;;9.00;99.90;;;;;;5072830;28;20397;-41
2023/04/24 11:27:21;;;;;;;2.10;0.30;;;9.20;99.90;;;;;;5065086;28;20036;-41
2023/04/24 11:30:00;;;;;;;3.65;0.50;;;9.30;99.90;;;;;;5072269;28;20033;-43
2023/04/24 11:32:33;;;;;;;0.60;0.60;;;9.50;99.90;;;;;;5072350;28;20070;-41
2023/04/24 11:35:14;;;;;;;4.00;0.65;;;9.70;99.90;;;;;;5072490;28;20024;-40
2023/04/24 11:37:48;;;;;;;2.22;0.38;;;9.90;99.90;;;;;;5072249;28;20048;-40
2023/04/24 11:40:16;;;;;;;2.10;0.80;;;10.00;99.90;;;;;;5072534;28;20044;-41
2023/04/24 11:42:44;;;;;;;0.68;0.43;;;10.30;99.90;;;;;;5072276;28;20365;-39
2023/04/24 11:45:12;;;;;;;1.77;0.47;;;10.60;99.90;;;;;;5072204;28;20033;-41
2023/04/24 11:47:38;;;;;;;;;;;10.60;99.90;;;;;;5072730;28;20098;-40
2023/04/24 11:50:06;;;;;;;2.67;0.60;;;10.40;99.90;;;;;;5072418;28;19916;-41
2023/04/24 11:52:36;;;;;;;3.13;0.38;;;10.40;99.90;;;;;;5072094;28;20036;-43
2023/04/24 11:55:03;;;;;;;3.60;1.00;;;10.50;99.90;;;;;;5072250;28;20033;-44
2023/04/24 11:57:34;;;;;;;5.75;0.70;;;10.50;99.90;;;;;;5076129;28;20480;-45
2023/04/24 12:00:00;;;;;;;5.75;0.88;;;10.50;99.90;;;;;;5075869;28;20476;-43
2023/04/24 12:02:27;;;;;;;3.67;1.10;;;10.60;99.90;;;;;;5075719;28;20024;-41
2023/04/24 12:04:54;;;;;;;5.72;1.02;;;10.50;99.90;;;;;;5075667;28;20557;-47
2023/04/24 12:07:20;;;;;;;3.00;0.75;;;10.70;99.90;;;;;;5075653;28;20099;-43
2023/04/24 12:09:56;;;;;;;1.70;0.38;;;10.80;99.90;;;;;;5075515;28;20036;-42
2023/04/24 12:12:25;;;;;;;6.65;0.75;;;10.80;99.90;;;;;;5075707;28;20473;-45
2023/04/24 12:14:56;;;;;;;4.43;1.17;;;11.00;99.90;;;;;;5074229;28;20036;-41
2023/04/24 12:17:31;;;;;;;7.82;1.30;;;10.90;99.90;;;;;;5075662;28;20472;-43
2023/04/24 12:20:02;;;;;;;5.28;0.93;;;10.90;99.90;;;;;;5075453;28;20025;-40
2023/04/24 12:22:29;;;;;;;9.45;1.20;;;11.10;99.90;;;;;;5075341;28;20483;-39
2023/04/24 12:25:01;;;;;;;7.93;1.23;;;11.20;99.90;;;;;;5075517;28;20107;-41
2023/04/24 12:27:30;;;;;;;4.30;1.48;;;11.20;99.90;;;;;;5075495;28;20052;-42
2023/04/24 12:29:57;;;;;;;8.27;1.42;;;11.00;99.90;;;;;;5075196;28;20334;-41
2023/04/24 12:32:25;;;;;;;11.65;1.70;;;10.80;99.90;;;;;;5075089;28;20503;-43
2023/04/24 12:34:51;;;;;;;4.85;1.20;;;10.80;99.90;;;;;;5074019;28;20024;-43
2023/04/24 12:37:17;;;;;;;10.45;1.42;;;10.60;99.90;;;;;;5074989;28;20041;-42
2023/04/24 12:40:02;;;;;;;7.63;0.93;;;10.50;99.90;;;;;;5075217;28;20330;-41
2023/04/24 12:42:31;;;;;;;6.32;0.93;;;10.30;99.90;;;;;;5075018;28;20035;-43
2023/04/24 12:45:02;;;;;;;8.27;1.42;;;10.20;99.90;;;;;;5075150;28;20032;-41
2023/04/24 12:47:28;;;;;;;13.82;1.38;;;10.20;99.90;;;;;;5074878;28;20029;-42
2023/04/24 12:49:55;;;;;;;7.15;1.58;;;10.20;99.90;;;;;;5074846;28;20036;-43